createdAt,value
2023-05-18T00:00:35.524Z,101046.64
2023-05-18T00:03:20.022Z,101043.36
2023-05-18T00:05:49.591Z,101047.89
2023-05-18T00:08:17.697Z,101049.55
2023-05-18T00:10:45.984Z,101052.77
2023-05-18T00:13:14.069Z,101051.73
2023-05-18T00:15:44.160Z,101054.34
2023-05-18T00:18:12.317Z,101055.65
2023-05-18T00:20:40.469Z,101064.09
2023-05-18T00:23:10.822Z,101067.31
2023-05-18T00:25:38.900Z,101066.76
2023-05-18T00:28:07.032Z,101060.48
2023-05-18T00:30:35.111Z,101057.43
2023-05-18T00:33:03.204Z,101060.56
2023-05-18T00:35:31.670Z,101064.45
2023-05-18T00:37:59.971Z,101062.63
2023-05-18T00:40:29.434Z,101064.75
2023-05-18T00:42:57.689Z,101065.32
2023-05-18T00:45:26.848Z,101069.85
2023-05-18T00:47:56.661Z,101075.99
2023-05-18T00:50:25.196Z,101077.95
2023-05-18T00:52:53.374Z,101077.00
2023-05-18T00:55:22.391Z,101071.26
2023-05-18T00:57:50.600Z,101076.49
2023-05-18T01:00:20.823Z,101078.89
2023-05-18T01:02:51.322Z,101082.67
2023-05-18T01:05:22.351Z,101082.67
2023-05-18T01:07:50.607Z,101082.29
2023-05-18T01:10:20.329Z,101083.77
2023-05-18T01:13:04.162Z,101084.93
2023-05-18T01:15:39.692Z,101090.45
2023-05-18T01:18:25.678Z,101094.45
2023-05-18T01:21:00.660Z,101101.70
2023-05-18T01:23:59.090Z,101097.68
2023-05-18T01:26:37.657Z,101101.11
2023-05-18T01:29:11.505Z,101102.83
2023-05-18T01:31:40.202Z,101101.58
2023-05-18T01:34:08.713Z,101100.69
2023-05-18T01:36:37.676Z,101102.94
2023-05-18T01:39:05.833Z,101101.35
2023-05-18T01:41:39.409Z,101097.70
2023-05-18T01:44:19.324Z,101095.89
2023-05-18T01:47:12.561Z,101101.77
2023-05-18T01:49:52.198Z,101103.44
2023-05-18T01:52:43.548Z,101102.54
2023-05-18T01:55:14.566Z,101100.00
2023-05-18T01:57:45.129Z,101098.38
2023-05-18T02:00:19.449Z,101099.92
2023-05-18T02:02:50.699Z,101104.35
2023-05-18T02:05:19.834Z,101109.24
2023-05-18T02:07:49.576Z,101110.27
2023-05-18T02:10:17.995Z,101115.20
2023-05-18T02:12:49.278Z,101114.95
2023-05-18T02:15:18.071Z,101113.47
2023-05-18T02:17:46.608Z,101115.27
2023-05-18T02:20:18.581Z,101122.75
2023-05-18T02:22:46.897Z,101116.21
2023-05-18T02:25:15.099Z,101119.91
2023-05-18T02:27:43.329Z,101123.57
2023-05-18T02:30:14.430Z,101118.10
2023-05-18T02:32:47.205Z,101117.30
2023-05-18T02:35:17.622Z,101116.14
2023-05-18T02:37:47.548Z,101116.85
2023-05-18T02:40:19.128Z,101123.25
2023-05-18T02:42:47.165Z,101125.70
2023-05-18T02:45:16.088Z,101130.39
2023-05-18T02:47:44.911Z,101133.89
2023-05-18T02:50:13.184Z,101137.42
2023-05-18T02:52:41.882Z,101137.88
2023-05-18T02:55:10.958Z,101143.15
2023-05-18T02:57:57.066Z,101148.07
2023-05-18T03:00:32.060Z,101142.66
2023-05-18T03:03:01.050Z,101148.89
2023-05-18T03:05:29.885Z,101150.42
2023-05-18T03:07:58.461Z,101154.21
2023-05-18T03:10:26.601Z,101156.96
2023-05-18T03:12:54.680Z,101158.50
2023-05-18T03:15:23.401Z,101159.89
2023-05-18T03:17:51.958Z,101162.33
2023-05-18T03:20:21.860Z,101161.52
2023-05-18T03:22:50.072Z,101166.29
2023-05-18T03:25:19.552Z,101171.40
2023-05-18T03:27:48.360Z,101166.87
2023-05-18T03:30:16.588Z,101163.39
2023-05-18T03:32:47.782Z,101169.59
2023-05-18T03:35:16.401Z,101170.08
2023-05-18T03:37:45.724Z,101172.11
2023-05-18T03:40:15.684Z,101173.30
2023-05-18T03:42:44.636Z,101171.94
2023-05-18T03:45:13.802Z,101174.17
2023-05-18T03:47:42.798Z,101175.54
2023-05-18T03:50:11.188Z,101178.80
2023-05-18T03:52:40.169Z,101185.33
2023-05-18T03:55:09.014Z,101186.85
2023-05-18T03:57:37.402Z,101190.43
2023-05-18T04:04:54.047Z,101194.20
2023-05-18T04:07:22.570Z,101197.11
2023-05-18T04:09:52.224Z,101202.27
2023-05-18T04:12:21.594Z,101203.48
2023-05-18T04:14:50.110Z,101203.77
2023-05-18T04:17:22.386Z,101207.31
2023-05-18T04:19:50.814Z,101208.20
2023-05-18T04:22:18.852Z,101211.34
2023-05-18T04:24:47.660Z,101212.67
2023-05-18T04:27:15.902Z,101216.44
2023-05-18T04:29:44.312Z,101215.73
2023-05-18T04:34:37.972Z,101214.52
2023-05-18T04:37:06.909Z,101215.73
2023-05-18T04:39:35.289Z,101219.53
2023-05-18T04:42:08.609Z,101222.13
2023-05-18T04:44:38.593Z,101221.54
2023-05-18T04:47:08.651Z,101221.44
2023-05-18T04:49:38.694Z,101223.09
2023-05-18T04:52:09.101Z,101217.61
2023-05-18T04:54:41.089Z,101221.11
2023-05-18T04:57:09.558Z,101222.60
2023-05-18T04:59:37.578Z,101224.85
2023-05-18T05:02:06.384Z,101223.23
2023-05-18T05:04:34.754Z,101228.58
2023-05-18T05:07:04.071Z,101226.25
2023-05-18T05:09:32.299Z,101228.80
2023-05-18T05:12:00.421Z,101230.54
2023-05-18T05:14:28.414Z,101229.09
2023-05-18T05:16:56.384Z,101233.83
2023-05-18T05:19:24.717Z,101234.48
2023-05-18T05:21:53.083Z,101233.18
2023-05-18T05:24:21.421Z,101241.50
2023-05-18T05:26:49.700Z,101242.05
2023-05-18T05:29:20.020Z,101245.56
2023-05-18T05:31:48.310Z,101249.73
2023-05-18T05:34:16.639Z,101246.59
2023-05-18T05:36:44.673Z,101253.88
2023-05-18T05:39:13.667Z,101253.04
2023-05-18T05:41:41.928Z,101255.83
2023-05-18T05:44:10.070Z,101259.16
2023-05-18T05:46:38.244Z,101257.22
2023-05-18T05:49:06.731Z,101254.14
2023-05-18T05:51:35.875Z,101259.16
2023-05-18T05:54:04.345Z,101257.36
2023-05-18T05:56:32.561Z,101258.54
2023-05-18T05:59:01.042Z,101252.90
2023-05-18T06:01:29.647Z,101253.67
2023-05-18T06:03:58.162Z,101257.61
2023-05-18T06:06:26.144Z,101260.02
2023-05-18T06:08:54.209Z,101257.20
2023-05-18T06:11:22.857Z,101262.74
2023-05-18T06:13:52.462Z,101264.59
2023-05-18T06:16:20.683Z,101268.52
2023-05-18T06:18:49.196Z,101266.41
2023-05-18T06:21:17.615Z,101265.27
2023-05-18T06:23:46.377Z,101270.13
2023-05-18T06:26:53.803Z,101267.48
2023-05-18T06:29:50.928Z,101271.03
2023-05-18T06:32:37.560Z,101270.37
2023-05-18T06:35:07.386Z,101274.59
2023-05-18T06:37:36.910Z,101271.05
2023-05-18T06:40:07.373Z,101270.12
2023-05-18T06:42:35.617Z,101272.20
2023-05-18T06:45:23.334Z,101273.61
2023-05-18T06:47:54.661Z,101275.39
2023-05-18T06:50:23.179Z,101274.05
2023-05-18T06:52:51.614Z,101274.77
2023-05-18T06:55:20.344Z,101276.77
2023-05-18T06:57:48.492Z,101280.88
2023-05-18T07:00:17.209Z,101278.05
2023-05-18T07:02:45.909Z,101278.99
2023-05-18T07:05:15.114Z,101285.38
2023-05-18T07:07:43.267Z,101284.07
2023-05-18T07:10:11.667Z,101285.48
2023-05-18T07:12:39.917Z,101285.63
2023-05-18T07:15:08.238Z,101290.05
2023-05-18T07:17:36.561Z,101289.66
2023-05-18T07:20:09.021Z,101291.42
2023-05-18T07:22:37.051Z,101294.16
2023-05-18T07:25:05.723Z,101294.10
2023-05-18T07:27:34.838Z,101296.52
2023-05-18T07:30:03.056Z,101297.40
2023-05-18T07:32:31.120Z,101296.31
2023-05-18T07:34:59.515Z,101300.58
2023-05-18T07:37:27.439Z,101304.42
2023-05-18T07:39:55.582Z,101304.17
2023-05-18T07:42:23.669Z,101303.80
2023-05-18T07:44:52.339Z,101303.86
2023-05-18T07:47:21.834Z,101301.80
2023-05-18T07:49:49.938Z,101306.47
2023-05-18T07:52:18.031Z,101308.37
2023-05-18T07:54:46.058Z,101310.66
2023-05-18T07:57:14.513Z,101309.20
2023-05-18T07:59:42.867Z,101312.57
2023-05-18T08:02:11.354Z,101315.64
2023-05-18T08:04:39.572Z,101313.80
2023-05-18T08:07:09.144Z,101315.98
2023-05-18T08:09:37.412Z,101317.60
2023-05-18T08:12:06.301Z,101314.42
2023-05-18T08:14:34.334Z,101316.98
2023-05-18T08:17:04.920Z,101315.83
2023-05-18T08:19:33.063Z,101314.88
2023-05-18T08:22:01.169Z,101309.65
2023-05-18T08:24:29.184Z,101310.95
2023-05-18T08:26:57.585Z,101311.70
2023-05-18T08:29:25.827Z,101316.33
2023-05-18T08:31:54.009Z,101319.00
2023-05-18T08:34:22.710Z,101318.48
2023-05-18T08:36:50.806Z,101315.40
2023-05-18T08:39:19.415Z,101318.97
2023-05-18T08:42:03.934Z,101321.48
2023-05-18T08:44:41.116Z,101320.89
2023-05-18T08:47:11.519Z,101319.67
2023-05-18T08:49:42.383Z,101320.52
2023-05-18T08:52:18.005Z,101315.52
2023-05-18T08:54:48.730Z,101316.27
2023-05-18T08:57:18.510Z,101316.52
2023-05-18T08:59:49.433Z,101314.27
2023-05-18T09:02:18.633Z,101311.17
2023-05-18T09:04:48.322Z,101309.46
2023-05-18T09:07:18.416Z,101311.72
2023-05-18T09:09:47.779Z,101312.77
2023-05-18T09:12:20.181Z,101312.08
2023-05-18T09:14:49.250Z,101313.66
2023-05-18T09:17:17.385Z,101312.41
2023-05-18T09:19:46.288Z,101312.94
2023-05-18T09:22:15.332Z,101307.64
2023-05-18T09:24:43.985Z,101306.81
2023-05-18T09:27:12.197Z,101309.96
2023-05-18T09:29:54.350Z,101308.55
2023-05-18T09:32:23.136Z,101305.90
2023-05-18T09:34:51.430Z,101307.72
2023-05-18T09:37:21.421Z,101308.34
2023-05-18T09:40:04.844Z,101310.55
2023-05-18T09:42:39.846Z,101314.61
2023-05-18T09:45:24.268Z,101312.22
2023-05-18T09:47:53.714Z,101310.49
2023-05-18T09:50:22.754Z,101318.15
2023-05-18T09:52:50.938Z,101324.73
2023-05-18T09:55:20.531Z,101319.98
2023-05-18T09:57:50.763Z,101315.29
2023-05-18T10:00:20.716Z,101311.66
2023-05-18T10:02:52.963Z,101309.77
2023-05-18T10:05:35.538Z,101305.98
2023-05-18T10:08:04.336Z,101310.48
2023-05-18T10:10:32.649Z,101312.73
2023-05-18T10:13:01.641Z,101314.31
2023-05-18T10:15:30.199Z,101317.65
2023-05-18T10:18:01.313Z,101315.91
2023-05-18T10:20:29.767Z,101313.98
2023-05-18T10:23:00.943Z,101309.61
2023-05-18T10:25:31.003Z,101309.64
2023-05-18T10:28:06.398Z,101310.08
2023-05-18T10:30:35.366Z,101308.40
2023-05-18T10:33:11.268Z,101310.36
2023-05-18T10:35:45.574Z,101310.59
2023-05-18T10:38:15.196Z,101309.04
2023-05-18T10:40:45.102Z,101309.67
2023-05-18T10:43:14.769Z,101311.19
2023-05-18T10:45:47.310Z,101308.59
2023-05-18T10:48:16.432Z,101313.74
2023-05-18T10:50:44.603Z,101312.11
2023-05-18T10:53:13.086Z,101309.71
2023-05-18T10:55:41.186Z,101313.46
2023-05-18T10:58:14.336Z,101310.45
2023-05-18T11:04:40.838Z,101309.31
2023-05-18T11:07:13.675Z,101308.29
2023-05-18T11:09:43.127Z,101306.08
2023-05-18T11:12:13.200Z,101305.73
2023-05-18T11:14:53.005Z,101307.37
2023-05-18T11:17:26.786Z,101297.88
2023-05-18T11:20:08.014Z,101298.95
2023-05-18T11:22:59.190Z,101302.23
2023-05-18T11:25:27.226Z,101298.72
2023-05-18T11:28:02.348Z,101299.48
2023-05-18T11:30:45.164Z,101298.27
2023-05-18T11:33:16.064Z,101296.23
2023-05-18T11:36:01.071Z,101296.01
2023-05-18T11:38:55.291Z,101295.69
2023-05-18T11:41:35.775Z,101295.90
2023-05-18T11:44:14.898Z,101294.83
2023-05-18T11:46:53.550Z,101297.25
2023-05-18T11:49:25.072Z,101298.53
2023-05-18T11:52:02.709Z,101299.55
2023-05-18T11:54:44.077Z,101300.71
2023-05-18T11:57:15.280Z,101299.06
2023-05-18T11:59:45.799Z,101298.97
2023-05-18T12:02:21.718Z,101302.74
2023-05-18T12:04:53.170Z,101305.73
2023-05-18T12:07:22.694Z,101303.64
2023-05-18T12:09:51.283Z,101303.23
2023-05-18T12:12:20.410Z,101302.00
2023-05-18T12:14:55.658Z,101304.02
2023-05-18T12:17:24.721Z,101303.46
2023-05-18T12:19:53.302Z,101300.33
2023-05-18T12:22:21.505Z,101300.84
2023-05-18T12:24:51.547Z,101303.46
2023-05-18T12:27:23.030Z,101305.83
2023-05-18T12:29:51.424Z,101303.68
2023-05-18T12:32:19.539Z,101302.22
2023-05-18T12:34:47.522Z,101303.43
2023-05-18T12:37:15.861Z,101298.14
2023-05-18T12:39:44.028Z,101298.75
2023-05-18T12:42:14.427Z,101298.64
2023-05-18T12:44:44.864Z,101299.80
2023-05-18T12:47:14.113Z,101299.42
2023-05-18T12:49:47.867Z,101296.88
2023-05-18T12:52:16.814Z,101298.27
2023-05-18T12:54:58.507Z,101305.04
2023-05-18T12:57:31.266Z,101301.58
2023-05-18T13:00:01.048Z,101300.94
2023-05-18T13:02:51.788Z,101305.84
2023-05-18T13:05:24.405Z,101305.55
2023-05-18T13:07:56.094Z,101302.39
2023-05-18T13:10:24.326Z,101301.91
2023-05-18T13:12:52.804Z,101295.78
2023-05-18T13:18:15.290Z,101297.90
2023-05-18T13:20:50.854Z,101299.60
2023-05-18T13:23:24.932Z,101293.77
2023-05-18T13:25:53.090Z,101296.17
2023-05-18T13:28:21.982Z,101295.21
2023-05-18T13:30:50.677Z,101292.73
2023-05-18T13:33:19.617Z,101290.85
2023-05-18T13:35:49.849Z,101294.07
2023-05-18T13:38:18.083Z,101293.61
2023-05-18T13:40:47.013Z,101295.73
2023-05-18T13:43:15.111Z,101296.52
2023-05-18T13:45:43.662Z,101296.09
2023-05-18T13:48:11.839Z,101298.92
2023-05-18T13:50:40.163Z,101298.58
2023-05-18T13:53:08.654Z,101292.91
2023-05-18T13:55:37.508Z,101293.55
2023-05-18T13:58:06.480Z,101297.70
2023-05-18T14:00:34.950Z,101295.71
2023-05-18T14:03:03.223Z,101301.04
2023-05-18T14:05:31.375Z,101297.86
2023-05-18T14:07:59.567Z,101293.52
2023-05-18T14:10:27.610Z,101299.77
2023-05-18T14:12:55.777Z,101298.20
2023-05-18T14:15:24.017Z,101296.46
2023-05-18T14:17:52.153Z,101300.68
2023-05-18T14:20:20.292Z,101294.95
2023-05-18T14:22:48.444Z,101299.66
2023-05-18T14:25:17.053Z,101295.02
2023-05-18T14:27:45.766Z,101294.83
2023-05-18T14:30:14.298Z,101294.13
2023-05-18T14:32:42.373Z,101295.17
2023-05-18T14:35:10.541Z,101293.80
2023-05-18T14:37:38.759Z,101291.70
2023-05-18T14:40:07.877Z,101294.45
2023-05-18T14:42:37.417Z,101297.44
2023-05-18T14:45:06.067Z,101301.10
2023-05-18T14:47:34.289Z,101300.05
2023-05-18T14:50:02.632Z,101297.27
2023-05-18T14:52:30.681Z,101301.81
2023-05-18T14:54:58.752Z,101301.45
2023-05-18T14:57:27.132Z,101301.27
2023-05-18T14:59:55.196Z,101304.59
2023-05-18T15:02:23.235Z,101300.23
2023-05-18T15:04:51.360Z,101299.70
2023-05-18T15:07:20.282Z,101301.61
2023-05-18T15:09:48.492Z,101298.65
2023-05-18T15:12:17.849Z,101299.34
2023-05-18T15:14:45.901Z,101294.65
2023-05-18T15:17:15.252Z,101294.64
2023-05-18T15:20:09.523Z,101297.79
2023-05-18T15:22:38.495Z,101299.17
2023-05-18T15:25:07.613Z,101299.35
2023-05-18T15:27:36.955Z,101298.30
2023-05-18T15:30:11.558Z,101300.20
2023-05-18T15:32:45.746Z,101298.83
2023-05-18T15:35:16.201Z,101297.79
2023-05-18T15:37:44.504Z,101297.44
2023-05-18T15:40:12.557Z,101298.84
2023-05-18T15:42:40.618Z,101301.09
2023-05-18T15:45:09.207Z,101305.06
2023-05-18T15:47:37.276Z,101301.40
2023-05-18T15:50:06.477Z,101301.21
2023-05-18T15:52:34.813Z,101298.25
2023-05-18T15:55:02.860Z,101296.88
2023-05-18T15:57:32.353Z,101299.32
2023-05-18T16:00:00.440Z,101298.80
2023-05-18T16:02:30.585Z,101296.02
2023-05-18T16:04:59.632Z,101300.36
2023-05-18T16:07:27.739Z,101294.27
2023-05-18T16:09:56.075Z,101298.80
2023-05-18T16:12:24.165Z,101302.27
2023-05-18T16:14:52.182Z,101297.55
2023-05-18T16:17:20.365Z,101302.77
2023-05-18T16:19:48.436Z,101306.77
2023-05-18T16:22:16.697Z,101306.77
2023-05-18T16:24:45.133Z,101306.06
2023-05-18T16:27:13.284Z,101305.35
2023-05-18T16:29:43.213Z,101307.61
2023-05-18T16:32:11.620Z,101304.48
2023-05-18T16:34:39.676Z,101304.98
2023-05-18T16:37:08.942Z,101304.13
2023-05-18T16:39:37.124Z,101305.50
2023-05-18T16:42:05.758Z,101303.77
2023-05-18T16:44:35.839Z,101302.38
2023-05-18T16:47:03.875Z,101303.92
2023-05-18T16:49:32.934Z,101302.52
2023-05-18T16:52:01.336Z,101303.73
2023-05-18T16:54:29.361Z,101307.39
2023-05-18T16:56:57.368Z,101310.15
2023-05-18T16:59:25.656Z,101308.58
2023-05-18T17:01:53.695Z,101311.00
2023-05-18T17:04:21.857Z,101315.84
2023-05-18T17:06:49.899Z,101311.14
2023-05-18T17:09:20.568Z,101315.65
2023-05-18T17:11:48.903Z,101316.50
2023-05-18T17:14:18.562Z,101319.80
2023-05-18T17:16:47.308Z,101320.11
2023-05-18T17:19:15.336Z,101322.85
2023-05-18T17:21:43.328Z,101323.36
2023-05-18T17:24:11.302Z,101325.98
2023-05-18T17:26:39.305Z,101324.57
2023-05-18T17:29:07.450Z,101324.04
2023-05-18T17:31:35.657Z,101324.55
2023-05-18T17:34:03.822Z,101321.06
2023-05-18T17:36:31.778Z,101326.27
2023-05-18T17:38:59.761Z,101327.98
2023-05-18T17:41:27.728Z,101326.75
2023-05-18T17:43:55.757Z,101330.73
2023-05-18T17:46:23.799Z,101331.58
2023-05-18T17:49:17.335Z,101334.36
2023-05-18T17:51:49.336Z,101334.02
2023-05-18T17:54:17.344Z,101336.79
2023-05-18T17:56:45.570Z,101337.12
2023-05-18T17:59:13.622Z,101342.48
2023-05-18T18:01:43.255Z,101341.09
2023-05-18T18:04:11.386Z,101343.33
2023-05-18T18:06:39.525Z,101341.40
2023-05-18T18:09:07.674Z,101341.56
2023-05-18T18:11:35.973Z,101339.77
2023-05-18T18:14:04.142Z,101340.11
2023-05-18T18:16:32.325Z,101343.59
2023-05-18T18:19:00.623Z,101342.89
2023-05-18T18:21:28.613Z,101344.77
2023-05-18T18:23:56.692Z,101347.55
2023-05-18T18:26:24.905Z,101354.35
2023-05-18T18:28:53.018Z,101356.61
2023-05-18T18:31:21.187Z,101357.48
2023-05-18T18:33:52.037Z,101356.76
2023-05-18T18:36:20.889Z,101359.69
2023-05-18T18:38:48.918Z,101361.71
2023-05-18T18:41:20.082Z,101360.77
2023-05-18T18:43:47.982Z,101366.98
2023-05-18T18:46:16.118Z,101364.71
2023-05-18T18:48:47.660Z,101367.80
2023-05-18T18:51:15.711Z,101367.05
2023-05-18T18:53:43.718Z,101368.05
2023-05-18T18:56:11.835Z,101369.38
2023-05-18T18:58:39.936Z,101367.73
2023-05-18T19:04:38.302Z,101370.13
2023-05-18T19:07:06.327Z,101371.30
2023-05-18T19:09:36.243Z,101370.72
2023-05-18T19:12:04.824Z,101368.76
2023-05-18T19:14:33.000Z,101371.50
2023-05-18T19:17:01.078Z,101377.02
2023-05-18T19:19:32.540Z,101372.29
2023-05-18T19:22:00.805Z,101375.20
2023-05-18T19:24:29.134Z,101374.13
2023-05-18T19:26:57.273Z,101377.05
2023-05-18T19:29:25.532Z,101377.02
2023-05-18T19:31:55.288Z,101378.73
2023-05-18T19:34:24.304Z,101380.42
2023-05-18T19:36:52.696Z,101380.05
2023-05-18T19:39:20.997Z,101381.77
2023-05-18T19:41:49.080Z,101378.80
2023-05-18T19:44:17.174Z,101378.56
2023-05-18T19:46:45.544Z,101378.84
2023-05-18T19:49:13.575Z,101382.46
2023-05-18T19:51:41.532Z,101382.79
2023-05-18T19:54:09.571Z,101381.89
2023-05-18T19:56:37.550Z,101382.36
2023-05-18T19:59:05.725Z,101382.33
2023-05-18T20:01:35.251Z,101383.17
2023-05-18T20:04:04.012Z,101382.48
2023-05-18T20:06:33.910Z,101388.20
2023-05-18T20:09:01.895Z,101390.43
2023-05-18T20:11:56.250Z,101393.58
2023-05-18T20:14:24.399Z,101391.30
2023-05-18T20:16:52.859Z,101397.55
2023-05-18T20:19:22.232Z,101388.16
2023-05-18T20:21:51.185Z,101395.23
2023-05-18T20:24:19.179Z,101390.88
2023-05-18T20:26:47.236Z,101395.73
2023-05-18T20:29:15.416Z,101397.28
2023-05-18T20:31:43.324Z,101398.49
2023-05-18T20:34:11.463Z,101398.48
2023-05-18T20:36:39.365Z,101402.48
2023-05-18T20:39:07.501Z,101407.67
2023-05-18T20:41:40.022Z,101410.45
2023-05-18T20:44:11.642Z,101413.58
2023-05-18T20:46:42.540Z,101412.36
2023-05-18T20:49:12.998Z,101414.91
2023-05-18T20:51:41.052Z,101419.58
2023-05-18T20:54:08.969Z,101416.61
2023-05-18T20:56:37.076Z,101418.86
2023-05-18T20:59:06.481Z,101420.92
2023-05-18T21:01:39.310Z,101421.44
2023-05-18T21:04:09.692Z,101421.27
2023-05-18T21:06:41.000Z,101419.21
2023-05-18T21:09:09.494Z,101421.65
2023-05-18T21:11:37.614Z,101423.91
2023-05-18T21:14:05.720Z,101427.02
2023-05-18T21:16:34.382Z,101425.95
2023-05-18T21:19:02.566Z,101424.73
2023-05-18T21:21:31.881Z,101423.48
2023-05-18T21:23:59.910Z,101421.76
2023-05-18T21:26:28.294Z,101424.53
2023-05-18T21:28:56.265Z,101425.57
2023-05-18T21:31:25.149Z,101426.07
2023-05-18T21:33:53.237Z,101423.11
2023-05-18T21:36:34.438Z,101427.62
2023-05-18T21:39:04.685Z,101429.02
2023-05-18T21:41:35.375Z,101428.86
2023-05-18T21:44:03.473Z,101430.58
2023-05-18T21:46:31.637Z,101433.86
2023-05-18T21:49:01.676Z,101435.91
2023-05-18T21:51:31.998Z,101438.31
2023-05-18T21:54:01.444Z,101437.96
2023-05-18T21:56:29.995Z,101440.90
2023-05-18T21:58:57.988Z,101441.09
2023-05-18T22:01:26.441Z,101442.14
2023-05-18T22:03:54.405Z,101443.68
2023-05-18T22:06:22.810Z,101447.16
2023-05-18T22:08:51.564Z,101444.04
2023-05-18T22:11:20.216Z,101452.70
2023-05-18T22:13:48.233Z,101449.06
2023-05-18T22:16:16.382Z,101450.79
2023-05-18T22:18:44.360Z,101454.27
2023-05-18T22:21:12.342Z,101458.26
2023-05-18T22:23:40.485Z,101457.02
2023-05-18T22:26:08.445Z,101454.06
2023-05-18T22:28:36.497Z,101451.48
2023-05-18T22:31:04.737Z,101450.61
2023-05-18T22:33:32.670Z,101453.57
2023-05-18T22:36:01.048Z,101451.32
2023-05-18T22:38:28.999Z,101455.65
2023-05-18T22:40:57.064Z,101453.21
2023-05-18T22:43:26.085Z,101455.80
2023-05-18T22:45:54.110Z,101457.56
2023-05-18T22:48:22.237Z,101455.61
2023-05-18T22:50:50.438Z,101456.48
2023-05-18T22:53:18.698Z,101454.90
2023-05-18T22:55:47.146Z,101452.63
2023-05-18T22:58:15.201Z,101454.68
2023-05-18T23:00:43.143Z,101453.80
2023-05-18T23:03:11.173Z,101452.88
2023-05-18T23:05:41.319Z,101454.40
2023-05-18T23:08:10.279Z,101452.66
2023-05-18T23:10:38.352Z,101454.02
2023-05-18T23:13:06.460Z,101450.89
2023-05-18T23:15:34.433Z,101456.91
2023-05-18T23:18:02.790Z,101454.98
2023-05-18T23:20:34.574Z,101452.37
2023-05-18T23:23:02.569Z,101452.19
2023-05-18T23:25:30.804Z,101455.46
2023-05-18T23:27:58.871Z,101453.73
2023-05-18T23:30:27.125Z,101451.46
2023-05-18T23:32:56.720Z,101452.02
2023-05-18T23:35:25.496Z,101452.55
2023-05-18T23:37:55.915Z,101453.56
2023-05-18T23:40:24.886Z,101452.19
2023-05-18T23:42:53.092Z,101451.48
2023-05-18T23:45:22.086Z,101450.79
2023-05-18T23:47:50.343Z,101449.59
2023-05-18T23:50:18.701Z,101444.85
2023-05-18T23:52:47.251Z,101447.09
2023-05-18T23:55:15.628Z,101448.81
2023-05-18T23:57:43.767Z,101446.05
